Time;durP1;ratioP1;P1;durP2;ratioP2;P2;SDS_P1;SDS_P2;PMS_P1;PMS_P2;Temp;Humidity;BMP_temperature;BMP_pressure;BME280_temperature;BME280_humidity;BME280_pressure;Samples;Min_cycle;Max_cycle;Signal;HPM_P1;HPM_P2
2023/12/17 00:02:07;;;;;;;3.00;2.70;;;;;;;13.39;51.38;99341.48;105618;1260;72461;-42
2023/12/17 00:04:34;;;;;;;3.00;2.60;;;;;;;13.40;51.54;99340.30;105444;1260;62052;-42
2023/12/17 00:07:02;;;;;;;3.20;2.90;;;;;;;13.40;51.36;99335.77;105274;1262;62079;-42
2023/12/17 00:09:29;;;;;;;2.70;2.50;;;;;;;13.40;51.41;99332.86;105316;1262;74379;-43
2023/12/17 00:11:57;;;;;;;3.10;2.60;;;;;;;13.41;51.51;99328.34;105486;1259;66037;-43
2023/12/17 00:14:24;;;;;;;2.70;2.50;;;;;;;13.40;51.38;99324.78;105545;1260;73130;-43
2023/12/17 00:16:51;;;;;;;2.90;2.50;;;;;;;13.41;51.40;99325.59;105518;1262;62032;-41
2023/12/17 00:19:19;;;;;;;2.50;2.30;;;;;;;13.41;51.42;99320.75;105222;1256;62162;-41
2023/12/17 00:21:46;;;;;;;3.80;2.60;;;;;;;13.41;51.46;99315.64;105592;1258;75217;-41
2023/12/17 00:24:13;;;;;;;2.70;2.40;;;;;;;13.42;51.39;99312.36;105350;1261;65555;-42
2023/12/17 00:26:41;;;;;;;2.90;2.50;;;;;;;13.42;51.39;99309.45;105385;1261;72331;-42
2023/12/17 00:29:08;;;;;;;3.20;2.40;;;;;;;13.42;51.48;99314.18;105567;1261;62053;-42
2023/12/17 00:31:35;;;;;;;3.20;2.60;;;;;;;13.42;51.37;99310.69;105568;1257;62150;-42
2023/12/17 00:34:03;;;;;;;3.40;2.30;;;;;;;13.43;51.48;99308.58;105512;1262;75453;-42
2023/12/17 00:36:30;;;;;;;3.60;2.50;;;;;;;13.43;51.37;99301.10;105353;1261;65976;-43
2023/12/17 00:38:58;;;;;;;3.20;2.20;;;;;;;13.43;51.39;99296.04;105239;1257;72399;-43
2023/12/17 00:41:25;;;;;;;2.80;2.60;;;;;;;13.43;51.46;99296.20;105365;1269;62062;-42
2023/12/17 00:43:52;;;;;;;3.60;2.60;;;;;;;13.43;51.32;99290.39;105586;1260;62135;-42
2023/12/17 00:46:20;;;;;;;3.20;2.30;;;;;;;13.44;51.36;99290.70;105604;1257;75107;-42
2023/12/17 00:48:47;;;;;;;3.00;2.60;;;;;;;13.43;51.36;99295.16;105451;1260;63966;-42
2023/12/17 00:51:14;;;;;;;2.60;2.30;;;;;;;13.43;51.34;99300.77;105479;1260;72617;-41
2023/12/17 00:53:42;;;;;;;3.60;2.80;;;;;;;13.44;51.47;99311.21;105628;1269;62043;-41
2023/12/17 00:56:10;;;;;;;3.70;2.70;;;;;;;13.44;51.50;99319.83;105582;1258;62173;-41
2023/12/17 00:58:37;;;;;;;4.70;2.60;;;;;;;13.45;51.41;99318.30;105593;1259;75438;-43
2023/12/17 01:01:04;;;;;;;3.30;2.50;;;;;;;13.44;51.39;99310.67;105342;1262;66215;-43
2023/12/17 01:03:32;;;;;;;3.00;2.60;;;;;;;13.44;51.45;99317.08;105329;1257;72425;-41
2023/12/17 01:05:59;;;;;;;2.60;2.40;;;;;;;13.45;51.40;99307.33;105231;1269;62065;-42
2023/12/17 01:08:27;;;;;;;2.90;2.60;;;;;;;13.45;51.34;99297.96;105199;1260;62162;-43
2023/12/17 01:10:54;;;;;;;3.20;2.40;;;;;;;13.44;51.29;99290.16;105420;1261;75407;-41
2023/12/17 01:13:21;;;;;;;3.00;2.60;;;;;;;13.45;51.47;99291.34;105617;1262;66232;-42
2023/12/17 01:15:51;;;;;;;3.50;2.60;;;;;;;13.45;51.36;99286.27;105617;1257;72721;-41
2023/12/17 01:18:19;;;;;;;3.00;2.40;;;;;;;13.45;51.41;99284.23;105559;1260;62435;-41
2023/12/17 01:20:47;;;;;;;2.90;2.50;;;;;;;13.46;51.43;99281.16;105742;1258;62157;-41
2023/12/17 01:23:14;;;;;;;2.80;2.50;;;;;;;13.46;51.50;99273.41;105562;1260;75469;-41
2023/12/17 01:25:41;;;;;;;3.20;2.50;;;;;;;13.46;51.21;99268.09;105201;1260;66327;-43
2023/12/17 01:28:08;;;;;;;3.00;2.50;;;;;;;13.46;51.37;99265.35;105458;1260;71524;-42
2023/12/17 01:30:36;;;;;;;2.60;2.40;;;;;;;13.46;51.34;99253.06;105560;1257;62691;-42
2023/12/17 01:33:03;;;;;;;2.80;2.30;;;;;;;13.46;51.40;99256.19;105556;1257;62056;-41
2023/12/17 01:35:31;;;;;;;3.40;2.50;;;;;;;13.46;51.41;99254.04;105859;1257;75389;-41
2023/12/17 01:37:58;;;;;;;2.70;2.50;;;;;;;13.46;51.41;99253.07;105254;1260;66480;-42
2023/12/17 01:40:25;;;;;;;4.70;2.40;;;;;;;13.46;51.41;99259.09;105328;1257;72696;-43
2023/12/17 01:42:53;;;;;;;2.90;2.20;;;;;;;13.46;51.40;99260.17;105511;1263;62076;-42
2023/12/17 01:45:20;;;;;;;2.90;2.40;;;;;;;13.47;51.29;99261.73;105614;1256;62162;-42
2023/12/17 01:47:48;;;;;;;3.70;2.40;;;;;;;13.47;51.31;99258.92;105646;1260;75941;-41
2023/12/17 01:50:16;;;;;;;3.90;2.50;;;;;;;13.47;51.42;99247.61;105620;1260;66012;-42
2023/12/17 01:52:43;;;;;;;3.80;2.60;;;;;;;13.47;51.26;99243.48;105636;1261;72290;-42
2023/12/17 01:55:10;;;;;;;2.80;2.30;;;;;;;13.47;51.29;99240.45;105201;1263;62063;-42
2023/12/17 01:57:37;;;;;;;3.40;2.50;;;;;;;13.47;51.46;99233.77;105282;1257;62066;-43
2023/12/17 02:00:06;;;;;;;4.20;2.50;;;;;;;13.48;51.26;99231.36;105270;1257;75489;-44
2023/12/17 02:02:33;;;;;;;3.20;2.50;;;;;;;13.48;51.46;99223.98;105543;1257;65993;-41
2023/12/17 02:05:02;;;;;;;2.90;2.40;;;;;;;13.47;51.28;99221.02;105541;1258;72608;-41
2023/12/17 02:07:29;;;;;;;3.00;2.50;;;;;;;13.48;51.30;99220.48;105454;1263;62516;-41
2023/12/17 02:09:57;;;;;;;3.30;2.20;;;;;;;13.48;51.47;99211.66;105298;1258;62028;-42
2023/12/17 02:12:28;;;;;;;3.80;2.40;;;;;;;13.48;51.42;99206.87;105225;1261;75127;-42
2023/12/17 02:14:55;;;;;;;2.90;2.50;;;;;;;13.48;51.28;99203.38;105428;1261;65071;-42
2023/12/17 02:17:29;;;;;;;2.90;2.40;;;;;;;13.48;51.33;99204.23;105663;1258;72670;-42
2023/12/17 02:19:57;;;;;;;3.40;2.40;;;;;;;13.48;51.37;99202.94;105545;1261;62072;-42
2023/12/17 02:22:25;;;;;;;3.00;2.40;;;;;;;13.49;51.41;99206.50;105416;1258;62179;-42
2023/12/17 02:24:52;;;;;;;3.10;2.70;;;;;;;13.48;51.33;99206.71;105469;1260;75107;-41
2023/12/17 02:27:23;;;;;;;2.60;2.40;;;;;;;13.49;51.36;99208.76;105397;1261;66103;-43
2023/12/17 02:29:51;;;;;;;4.30;2.60;;;;;;;13.49;51.40;99213.54;105476;1261;72617;-43
2023/12/17 02:32:21;;;;;;;3.60;2.60;;;;;;;13.49;51.36;99215.21;105281;1261;62172;-43
2023/12/17 02:34:49;;;;;;;3.20;2.60;;;;;;;13.49;51.46;99207.08;105309;1256;62032;-43
2023/12/17 02:37:16;;;;;;;3.00;2.70;;;;;;;13.49;51.31;99205.47;105407;1257;75469;-41
2023/12/17 02:39:43;;;;;;;3.30;2.50;;;;;;;13.49;51.32;99201.86;105255;1260;66123;-41
2023/12/17 02:42:11;;;;;;;2.70;2.50;;;;;;;13.49;51.27;99197.70;105454;1258;72603;-42
2023/12/17 02:44:38;;;;;;;2.90;2.50;;;;;;;13.50;51.24;99198.50;105620;1260;61998;-42
2023/12/17 02:47:06;;;;;;;3.10;2.10;;;;;;;13.50;51.36;99192.91;105635;1260;62075;-40
2023/12/17 02:49:33;;;;;;;3.20;2.50;;;;;;;13.51;51.41;99187.95;105558;1260;75095;-42
2023/12/17 02:52:01;;;;;;;3.10;2.00;;;;;;;13.50;51.32;99184.30;105646;1260;66827;-42
2023/12/17 02:54:29;;;;;;;2.80;2.40;;;;;;;13.50;51.39;99173.15;105566;1257;72605;-42
2023/12/17 02:56:57;;;;;;;2.70;2.30;;;;;;;13.51;51.23;99171.27;105613;1260;62055;-42
2023/12/17 02:59:24;;;;;;;3.00;2.40;;;;;;;13.51;51.41;99166.80;105609;1258;62049;-42
2023/12/17 03:01:52;;;;;;;3.00;2.30;;;;;;;13.50;51.30;99160.94;105409;1260;75161;-42
2023/12/17 03:04:19;;;;;;;2.90;2.60;;;;;;;13.51;51.28;99154.59;105574;1260;66105;-42
2023/12/17 03:06:47;;;;;;;3.10;2.50;;;;;;;13.51;51.38;99147.09;105348;1258;72629;-42
2023/12/17 03:09:15;;;;;;;2.80;2.30;;;;;;;13.51;51.35;99138.59;105413;1257;62064;-41
2023/12/17 03:11:43;;;;;;;2.60;2.20;;;;;;;13.51;51.25;99126.48;105394;1258;62035;-42
2023/12/17 03:14:11;;;;;;;2.80;2.50;;;;;;;13.51;51.34;99122.98;105534;1258;75370;-41
2023/12/17 03:16:38;;;;;;;2.80;2.40;;;;;;;13.51;51.34;99126.00;105659;1260;66220;-42
2023/12/17 03:19:05;;;;;;;3.70;2.30;;;;;;;13.51;51.32;99114.48;105584;1256;72591;-42
2023/12/17 03:21:33;;;;;;;2.90;2.30;;;;;;;13.51;51.22;99106.23;105574;1269;62053;-43
2023/12/17 03:24:00;;;;;;;3.00;2.50;;;;;;;13.52;51.22;99102.20;105274;1256;62067;-42
2023/12/17 03:26:27;;;;;;;3.40;2.40;;;;;;;13.52;51.33;99088.95;105473;1258;75943;-42
2023/12/17 03:28:55;;;;;;;3.40;2.20;;;;;;;13.52;51.16;99086.42;105539;1260;65777;-41
2023/12/17 03:31:22;;;;;;;3.00;2.40;;;;;;;13.52;51.28;99079.73;105595;1257;72319;-40
2023/12/17 03:33:49;;;;;;;2.70;2.30;;;;;;;13.52;51.30;99075.27;105308;1260;62037;-42
2023/12/17 03:36:17;;;;;;;2.60;2.00;;;;;;;13.52;51.29;99084.97;105307;1260;62073;-42
2023/12/17 03:38:45;;;;;;;2.80;2.50;;;;;;;13.52;51.21;99090.98;105487;1260;75360;-41
2023/12/17 03:41:22;;;;;;;2.80;2.40;;;;;;;13.52;51.24;99097.55;105319;1258;66434;-42
2023/12/17 03:43:50;;;;;;;2.70;2.50;;;;;;;13.53;51.26;99093.25;105323;1256;72681;-41
2023/12/17 03:46:18;;;;;;;2.50;2.30;;;;;;;13.53;51.19;99094.65;105599;1258;62163;-49
2023/12/17 03:48:46;;;;;;;2.40;2.20;;;;;;;13.53;51.24;99083.45;105325;1260;62101;-42
2023/12/17 03:51:13;;;;;;;2.60;2.20;;;;;;;13.53;51.21;99085.77;105402;1260;75306;-42
2023/12/17 03:53:41;;;;;;;3.00;2.30;;;;;;;13.53;51.30;99089.32;105666;1260;65266;-42
2023/12/17 03:56:12;;;;;;;3.00;2.30;;;;;;;13.53;51.16;99097.23;105600;1257;72284;-42
2023/12/17 03:58:39;;;;;;;3.10;2.40;;;;;;;13.54;51.36;99100.72;105588;1257;62182;-42
2023/12/17 04:01:07;;;;;;;2.70;2.30;;;;;;;13.53;51.26;99092.71;105556;1257;62435;-42
2023/12/17 04:03:35;;;;;;;3.20;2.10;;;;;;;13.54;51.27;99091.13;105212;1260;75058;-42
2023/12/17 04:06:04;;;;;;;2.40;2.20;;;;;;;13.54;51.28;99091.14;105288;1260;64793;-41
2023/12/17 04:08:32;;;;;;;2.30;2.10;;;;;;;13.54;51.27;99096.20;105432;1257;71999;-42
2023/12/17 04:10:59;;;;;;;2.70;2.00;;;;;;;13.55;51.34;99094.95;105290;1261;62061;-43
2023/12/17 04:13:26;;;;;;;2.60;2.20;;;;;;;13.55;51.25;99092.90;105374;1256;62160;-42
2023/12/17 04:15:54;;;;;;;2.40;2.00;;;;;;;13.55;51.20;99086.34;105586;1261;75349;-42
2023/12/17 04:18:21;;;;;;;2.60;2.20;;;;;;;13.56;51.09;99086.06;105578;1260;65970;-42
2023/12/17 04:20:48;;;;;;;2.40;2.10;;;;;;;13.55;51.29;99088.77;105599;1260;72382;-42
2023/12/17 04:23:16;;;;;;;2.00;1.80;;;;;;;13.55;51.24;99079.08;105514;1261;62131;-42
2023/12/17 04:25:43;;;;;;;2.70;2.20;;;;;;;13.56;51.17;99077.41;105540;1260;62767;-43
2023/12/17 04:28:10;;;;;;;2.60;2.20;;;;;;;13.56;51.27;99078.64;105416;1257;75336;-42
2023/12/17 04:30:38;;;;;;;2.60;2.30;;;;;;;13.56;51.20;99077.14;105674;1257;66183;-42
2023/12/17 04:33:05;;;;;;;2.90;2.10;;;;;;;13.56;51.27;99083.27;105449;1257;72621;-42
2023/12/17 04:35:33;;;;;;;2.30;2.00;;;;;;;13.57;51.29;99085.30;105983;1260;62049;-42
2023/12/17 04:38:00;;;;;;;2.90;2.30;;;;;;;13.57;51.32;99084.71;105579;1256;62531;-42
2023/12/17 04:40:28;;;;;;;2.30;2.10;;;;;;;13.57;51.21;99084.11;105345;1260;75106;-43
2023/12/17 04:42:55;;;;;;;2.50;2.20;;;;;;;13.57;51.27;99079.16;105422;1260;66676;-43
2023/12/17 04:45:22;;;;;;;2.50;2.10;;;;;;;13.57;51.12;99088.90;105453;1257;72565;-43
2023/12/17 04:47:50;;;;;;;3.80;2.30;;;;;;;13.57;51.13;99081.64;105571;1260;62178;-41
2023/12/17 04:50:18;;;;;;;3.60;2.50;;;;;;;13.57;51.21;99073.29;105587;1257;62517;-42
2023/12/17 04:52:45;;;;;;;2.20;2.00;;;;;;;13.58;51.34;99078.02;105613;1257;75924;-42
2023/12/17 04:55:13;;;;;;;3.00;2.30;;;;;;;13.58;51.27;99083.57;105564;1256;66311;-42
2023/12/17 04:57:40;;;;;;;2.90;2.30;;;;;;;13.58;51.28;99082.92;105633;1256;73674;-42
2023/12/17 05:00:09;;;;;;;2.60;2.40;;;;;;;13.58;51.21;99086.04;105608;1257;62099;-42
2023/12/17 05:02:37;;;;;;;2.40;2.20;;;;;;;13.59;51.27;99082.58;105638;1257;62194;-42
2023/12/17 05:05:06;;;;;;;2.40;2.00;;;;;;;13.58;51.19;99082.71;105590;1260;75391;-42
2023/12/17 05:07:33;;;;;;;2.70;2.40;;;;;;;13.59;51.15;99084.05;105631;1257;66237;-41
2023/12/17 05:10:01;;;;;;;2.20;2.00;;;;;;;13.59;51.34;99086.52;105216;1258;72693;-42
2023/12/17 05:12:28;;;;;;;2.70;2.20;;;;;;;13.58;51.15;99081.36;105354;1256;62500;-42
2023/12/17 05:14:56;;;;;;;2.50;2.30;;;;;;;13.59;51.22;99083.38;105393;1256;62143;-42
2023/12/17 05:17:23;;;;;;;2.10;1.80;;;;;;;13.59;51.23;99076.23;105356;1260;75368;-42
2023/12/17 05:19:51;;;;;;;2.80;2.30;;;;;;;13.59;51.14;99079.30;105593;1257;66473;-42
2023/12/17 05:22:18;;;;;;;2.20;2.00;;;;;;;13.60;51.25;99077.73;105627;1257;72452;-41
2023/12/17 05:24:45;;;;;;;2.60;2.30;;;;;;;13.60;51.20;99081.83;105558;1260;62053;-41
2023/12/17 05:27:13;;;;;;;3.00;2.20;;;;;;;13.60;51.15;99078.81;105511;1256;62012;-41
2023/12/17 05:29:40;;;;;;;2.40;2.00;;;;;;;13.60;51.19;99078.75;105176;1260;75376;-42
2023/12/17 05:32:07;;;;;;;3.00;2.20;;;;;;;13.60;51.24;99075.09;105310;1256;65458;-42
2023/12/17 05:34:35;;;;;;;4.70;2.30;;;;;;;13.60;51.16;99080.30;105139;1257;72365;-42
2023/12/17 05:37:02;;;;;;;2.70;2.40;;;;;;;13.61;51.14;99073.96;105193;1260;62032;-42
2023/12/17 05:39:29;;;;;;;2.30;2.10;;;;;;;13.61;51.20;99075.73;105485;1256;62153;-41
2023/12/17 05:41:56;;;;;;;2.60;2.10;;;;;;;13.61;51.15;99068.73;105285;1260;75425;-42
2023/12/17 05:44:24;;;;;;;2.30;2.00;;;;;;;13.61;51.12;99072.51;105284;1260;66481;-42
2023/12/17 05:46:51;;;;;;;2.90;2.30;;;;;;;13.61;51.34;99071.52;105581;1256;72652;-42
2023/12/17 05:49:18;;;;;;;2.10;1.90;;;;;;;13.61;51.18;99075.99;105622;1256;62012;-42
2023/12/17 05:51:47;;;;;;;2.30;2.10;;;;;;;13.61;51.14;99071.85;105383;1257;62118;-42
2023/12/17 05:54:17;;;;;;;2.10;1.80;;;;;;;13.61;51.15;99068.99;105447;1257;75241;-41
2023/12/17 05:56:44;;;;;;;3.30;2.40;;;;;;;13.61;51.09;99071.46;105649;1260;66574;-42
2023/12/17 05:59:12;;;;;;;2.70;2.20;;;;;;;13.62;51.07;99065.11;105222;1256;72317;-42
2023/12/17 06:01:39;;;;;;;2.30;2.10;;;;;;;13.62;51.16;99055.80;105250;1256;62056;-44
2023/12/17 06:04:06;;;;;;;2.40;2.00;;;;;;;13.62;51.16;99056.02;105398;1256;62217;-43
2023/12/17 06:06:34;;;;;;;5.00;2.30;;;;;;;13.62;51.22;99050.58;105592;1258;75185;-42
2023/12/17 06:09:02;;;;;;;2.40;2.00;;;;;;;13.62;51.18;99053.21;105266;1260;65135;-42
2023/12/17 06:11:29;;;;;;;2.30;2.00;;;;;;;13.62;51.21;99058.59;105397;1257;71115;-44
2023/12/17 06:13:56;;;;;;;3.00;2.10;;;;;;;13.62;51.24;99058.38;105356;1260;62032;-42
2023/12/17 06:16:24;;;;;;;3.50;2.00;;;;;;;13.62;51.28;99058.00;105567;1258;62178;-42
2023/12/17 06:18:52;;;;;;;2.30;2.00;;;;;;;13.63;51.16;99057.52;105513;1256;75359;-42
2023/12/17 06:21:24;;;;;;;2.50;2.30;;;;;;;13.63;51.26;99059.52;105548;1261;64686;-42
2023/12/17 06:23:58;;;;;;;2.00;1.80;;;;;;;13.63;51.27;99067.53;105579;1260;72597;-42
2023/12/17 06:26:26;;;;;;;2.70;2.00;;;;;;;13.63;51.09;99065.82;105576;1260;62358;-42
2023/12/17 06:28:53;;;;;;;2.30;2.00;;;;;;;13.63;51.35;99072.61;105346;1256;62173;-42
2023/12/17 06:31:22;;;;;;;2.80;2.40;;;;;;;13.63;51.11;99076.05;105393;1260;75376;-42
2023/12/17 06:33:49;;;;;;;2.70;2.00;;;;;;;13.63;51.21;99069.96;105277;1260;64774;-41
2023/12/17 06:36:16;;;;;;;2.80;2.10;;;;;;;13.63;51.16;99061.83;105617;1256;72333;-41
2023/12/17 06:38:44;;;;;;;2.30;1.80;;;;;;;13.63;51.14;99060.58;105315;1256;61919;-42
2023/12/17 06:41:12;;;;;;;2.80;1.90;;;;;;;13.63;51.07;99060.27;105236;1256;62062;-42
2023/12/17 06:43:39;;;;;;;2.30;1.90;;;;;;;13.63;51.05;99064.52;105201;1256;75238;-42
2023/12/17 06:46:07;;;;;;;2.10;1.90;;;;;;;13.63;50.99;99068.95;105499;1256;65996;-42
2023/12/17 06:48:35;;;;;;;3.20;2.00;;;;;;;13.63;51.12;99064.95;105193;1256;72598;-42
2023/12/17 06:51:03;;;;;;;2.60;2.20;;;;;;;13.62;51.10;99063.71;105608;1256;61935;-42
2023/12/17 06:53:30;;;;;;;2.50;2.10;;;;;;;13.63;51.16;99066.20;105188;1262;62576;-42
2023/12/17 06:55:58;;;;;;;2.50;2.00;;;;;;;13.62;51.10;99068.99;105245;1257;75199;-42
2023/12/17 06:58:25;;;;;;;2.00;1.90;;;;;;;13.63;51.15;99073.20;105468;1256;65442;-41
2023/12/17 07:00:52;;;;;;;2.30;2.00;;;;;;;13.63;51.20;99079.11;105327;1256;146992;-41
2023/12/17 07:03:20;;;;;;;2.30;2.10;;;;;;;13.62;51.11;99076.31;105302;1261;62051;-43
2023/12/17 07:05:47;;;;;;;2.00;1.80;;;;;;;13.62;51.12;99077.98;105712;1256;62165;-41
2023/12/17 07:08:15;;;;;;;2.20;1.90;;;;;;;13.62;51.20;99073.56;105627;1256;75251;-41
2023/12/17 07:10:42;;;;;;;2.40;1.90;;;;;;;13.62;51.07;99073.89;105320;1260;64885;-41
2023/12/17 07:13:09;;;;;;;2.40;1.80;;;;;;;13.62;51.09;99075.29;105239;1256;71265;-42
2023/12/17 07:15:37;;;;;;;2.30;2.00;;;;;;;13.62;51.14;99073.89;105868;1260;62053;-42
2023/12/17 07:18:04;;;;;;;2.90;1.90;;;;;;;13.62;51.21;99077.06;105612;1256;62079;-42
2023/12/17 07:20:32;;;;;;;2.20;1.90;;;;;;;13.62;51.16;99081.91;105896;1256;75171;-42
2023/12/17 07:22:59;;;;;;;2.30;2.00;;;;;;;13.62;51.14;99084.98;105197;1256;66720;-42
2023/12/17 07:25:27;;;;;;;2.50;2.30;;;;;;;13.62;51.17;99086.75;105194;1256;73261;-42
2023/12/17 07:27:54;;;;;;;2.80;2.10;;;;;;;13.62;51.08;99095.75;105490;1260;62139;-42
2023/12/17 07:30:22;;;;;;;2.20;1.80;;;;;;;13.62;51.08;99093.05;105487;1256;62096;-43
2023/12/17 07:32:50;;;;;;;2.00;1.60;;;;;;;13.62;51.14;99100.38;105318;1261;75576;-42
2023/12/17 07:35:17;;;;;;;2.60;1.90;;;;;;;13.62;50.96;99096.23;105369;1260;66188;-43
2023/12/17 07:37:45;;;;;;;2.20;1.80;;;;;;;13.62;51.02;99100.97;105501;1256;73247;-43
2023/12/17 07:40:12;;;;;;;2.40;2.00;;;;;;;13.61;51.12;99103.93;105277;1260;62051;-43
2023/12/17 07:42:41;;;;;;;2.10;1.90;;;;;;;13.61;51.09;99103.98;105204;1256;62061;-42
2023/12/17 07:45:09;;;;;;;4.70;2.00;;;;;;;13.61;51.05;99108.36;105281;1261;75316;-43
2023/12/17 07:47:38;;;;;;;2.00;1.80;;;;;;;13.61;51.17;99113.04;105234;1256;66214;-42
2023/12/17 07:50:09;;;;;;;2.00;1.80;;;;;;;13.60;51.03;99117.63;105359;1255;72316;-43
2023/12/17 07:52:37;;;;;;;2.30;2.10;;;;;;;13.60;51.04;99118.98;105505;1256;62099;-43
2023/12/17 07:55:05;;;;;;;2.40;2.00;;;;;;;13.60;51.17;99122.20;105306;1256;62169;-43
2023/12/17 07:57:33;;;;;;;2.70;2.00;;;;;;;13.59;51.13;99118.17;105331;1255;75250;-43
2023/12/17 08:00:00;;;;;;;2.60;2.10;;;;;;;13.59;51.16;99118.55;105432;1260;65823;-43
2023/12/17 08:02:38;;;;;;;2.30;1.90;;;;;;;13.59;51.05;99117.74;105298;1257;72437;-42
2023/12/17 08:05:06;;;;;;;2.90;2.20;;;;;;;13.58;51.12;99117.11;105221;1257;62082;-42
2023/12/17 08:07:33;;;;;;;3.60;2.20;;;;;;;13.58;51.19;99121.80;105218;1257;62133;-40
2023/12/17 08:10:02;;;;;;;2.80;1.80;;;;;;;13.58;51.12;99123.67;105204;1258;75179;-41
2023/12/17 08:12:32;;;;;;;2.10;1.80;;;;;;;13.58;51.18;99119.70;105326;1257;65884;-42
2023/12/17 08:14:59;;;;;;;2.60;2.00;;;;;;;13.58;51.07;99122.06;105320;1257;72564;-42
2023/12/17 08:17:26;;;;;;;2.00;1.70;;;;;;;13.57;51.13;99128.41;108848;1256;60071;-43
2023/12/17 08:19:54;;;;;;;2.70;2.10;;;;;;;13.58;51.06;99135.90;108480;1256;59693;-41
2023/12/17 08:22:22;;;;;;;2.70;1.90;;;;;;;13.58;51.19;99135.52;105600;1256;75266;-42
2023/12/17 08:24:51;;;;;;;1.90;1.80;;;;;;;13.58;51.09;99127.23;105477;1259;64848;-43
2023/12/17 08:27:19;;;;;;;2.90;2.00;;;;;;;13.58;51.08;99120.13;105438;1255;72344;-42
2023/12/17 08:29:50;;;;;;;2.00;1.70;;;;;;;13.58;51.19;99130.73;105522;1257;61986;-41
2023/12/17 08:32:18;;;;;;;2.00;1.80;;;;;;;13.59;51.08;99131.73;105448;1257;62065;-41
2023/12/17 08:34:45;;;;;;;2.00;1.80;;;;;;;13.58;50.95;99127.17;105599;1257;75367;-42
2023/12/17 08:37:19;;;;;;;2.60;2.10;;;;;;;13.58;51.01;99130.25;105507;1259;65947;-41
2023/12/17 08:39:48;;;;;;;2.20;1.90;;;;;;;13.58;51.04;99132.08;105347;1259;71648;-42
2023/12/17 08:42:16;;;;;;;2.00;1.80;;;;;;;13.57;51.00;99128.42;105600;1259;62044;-44
2023/12/17 08:44:45;;;;;;;1.90;1.80;;;;;;;13.57;51.00;99134.34;105435;1257;62081;-44
2023/12/17 08:47:13;;;;;;;2.90;1.80;;;;;;;13.57;51.07;99131.27;105494;1259;73215;-43
2023/12/17 08:49:41;;;;;;;3.90;2.10;;;;;;;13.57;50.99;99137.08;105405;1262;66097;-43
2023/12/17 08:52:08;;;;;;;2.60;1.90;;;;;;;13.57;51.09;99131.16;105847;1256;72621;-41
2023/12/17 08:54:35;;;;;;;2.40;2.00;;;;;;;13.57;51.11;99135.31;105247;1260;62047;-42
2023/12/17 08:57:03;;;;;;;2.10;1.90;;;;;;;13.56;51.01;99135.20;105431;1257;62168;-42
2023/12/17 08:59:31;;;;;;;3.00;2.30;;;;;;;13.56;50.97;99130.27;105500;1259;75354;-42
2023/12/17 09:01:58;;;;;;;2.10;1.90;;;;;;;13.56;51.09;99124.73;105446;1256;64762;-42
2023/12/17 09:04:25;;;;;;;2.50;1.80;;;;;;;13.56;50.91;99115.79;105418;1257;72777;-42
2023/12/17 09:06:53;;;;;;;2.70;2.20;;;;;;;13.55;50.83;99114.77;105651;1256;62041;-41
2023/12/17 09:09:20;;;;;;;2.20;1.90;;;;;;;13.56;50.93;99113.64;105435;1257;62171;-43
2023/12/17 09:11:48;;;;;;;2.30;2.00;;;;;;;13.56;51.01;99111.42;105315;1259;75197;-42
2023/12/17 09:14:15;;;;;;;1.80;1.70;;;;;;;13.55;50.96;99114.27;105205;1260;65584;-42
2023/12/17 09:16:43;;;;;;;3.90;2.00;;;;;;;13.55;50.93;99116.60;105267;1256;73567;-41
2023/12/17 09:19:10;;;;;;;2.40;2.10;;;;;;;13.55;51.02;99117.72;105553;1259;62051;-43
2023/12/17 09:21:38;;;;;;;2.00;1.80;;;;;;;13.55;50.90;99111.85;105539;1256;62039;-43
2023/12/17 09:24:06;;;;;;;2.80;1.80;;;;;;;13.54;51.09;99108.90;105337;1260;75357;-44
2023/12/17 09:26:33;;;;;;;2.40;1.80;;;;;;;13.54;51.05;99112.51;105318;1260;65056;-43
2023/12/17 09:29:01;;;;;;;2.10;1.80;;;;;;;13.53;51.01;99117.14;105151;1256;72422;-43
2023/12/17 09:31:28;;;;;;;2.40;2.00;;;;;;;13.53;51.11;99120.75;105286;1260;62045;-43
2023/12/17 09:33:55;;;;;;;2.10;1.90;;;;;;;13.52;51.05;99120.92;105311;1256;62076;-42
2023/12/17 09:36:25;;;;;;;2.40;2.00;;;;;;;13.52;50.94;99114.96;105200;1260;75371;-42
2023/12/17 09:38:52;;;;;;;2.60;1.90;;;;;;;13.51;51.00;99116.94;105378;1256;65873;-41
2023/12/17 09:41:20;;;;;;;2.40;1.90;;;;;;;13.51;51.02;99120.30;105617;1256;72635;-41
2023/12/17 09:43:47;;;;;;;2.20;2.00;;;;;;;13.51;50.92;99124.76;105571;1260;62047;-41
2023/12/17 09:46:14;;;;;;;1.90;1.80;;;;;;;13.50;51.11;99130.09;105398;1256;62070;-42
2023/12/17 09:48:42;;;;;;;2.10;1.70;;;;;;;13.49;50.90;99123.59;105298;1256;75313;-41
2023/12/17 09:51:12;;;;;;;2.30;2.10;;;;;;;13.49;51.12;99130.17;105537;1260;65621;-42
2023/12/17 09:53:40;;;;;;;2.20;2.00;;;;;;;13.49;50.92;99133.60;105346;1256;73011;-42
2023/12/17 09:56:08;;;;;;;1.90;1.80;;;;;;;13.49;51.03;99130.70;105111;1264;62076;-42
2023/12/17 09:58:35;;;;;;;2.30;1.90;;;;;;;13.48;50.98;99128.71;105337;1260;61930;-41
2023/12/17 10:01:02;;;;;;;2.30;1.70;;;;;;;13.48;51.00;99132.75;105560;1255;75464;-43
2023/12/17 10:03:30;;;;;;;2.40;2.00;;;;;;;13.47;51.02;99135.86;105541;1256;65657;-43
2023/12/17 10:05:58;;;;;;;2.90;2.00;;;;;;;13.46;50.98;99138.67;105417;1260;72581;-42
2023/12/17 10:08:27;;;;;;;2.10;1.90;;;;;;;13.46;51.12;99130.56;105318;1260;62156;-42
2023/12/17 10:10:55;;;;;;;2.00;1.80;;;;;;;13.46;51.11;99134.00;105217;1257;62182;-42
2023/12/17 10:13:22;;;;;;;2.00;1.80;;;;;;;13.45;51.00;99130.34;105132;1257;75478;-41
2023/12/17 10:15:51;;;;;;;2.10;1.90;;;;;;;13.45;51.09;99130.40;105099;1260;66131;-43
2023/12/17 10:18:18;;;;;;;2.20;1.80;;;;;;;13.45;51.10;99135.30;106588;1260;72627;-43
2023/12/17 10:20:46;;;;;;;2.80;2.00;;;;;;;13.44;51.05;99131.73;105313;1260;62046;-41
2023/12/17 10:23:14;;;;;;;2.40;1.70;;;;;;;13.44;51.01;99131.07;106082;1255;62134;-41
2023/12/17 10:25:42;;;;;;;2.50;2.10;;;;;;;13.45;51.04;99133.31;105558;1256;75359;-42
2023/12/17 10:28:10;;;;;;;2.20;1.80;;;;;;;13.44;51.11;99131.87;105461;1256;66229;-42
2023/12/17 10:30:37;;;;;;;2.10;1.90;;;;;;;13.43;51.04;99129.61;105843;1256;72686;-42
2023/12/17 10:33:05;;;;;;;2.10;1.90;;;;;;;13.44;51.13;99130.09;105296;1260;62061;-41
2023/12/17 10:35:33;;;;;;;2.20;2.00;;;;;;;13.44;51.07;99135.73;106042;1256;62064;-42
2023/12/17 10:38:02;;;;;;;1.70;1.60;;;;;;;13.44;51.08;99137.41;105241;1257;75436;-42
2023/12/17 10:40:29;;;;;;;2.00;1.80;;;;;;;13.44;51.08;99135.85;105508;1256;66251;-42
2023/12/17 10:42:57;;;;;;;2.10;1.80;;;;;;;13.43;51.03;99143.22;105469;1258;72404;-42
2023/12/17 10:45:25;;;;;;;1.90;1.70;;;;;;;13.43;50.99;99143.34;105392;1256;62171;-41
2023/12/17 10:47:56;;;;;;;2.70;2.10;;;;;;;13.43;51.03;99146.14;105314;1260;61958;-43
2023/12/17 10:50:24;;;;;;;2.20;1.90;;;;;;;13.42;51.03;99150.62;105329;1257;75777;-42
2023/12/17 10:52:51;;;;;;;3.30;2.10;;;;;;;13.42;51.01;99151.91;105509;1256;65078;-42
2023/12/17 10:55:19;;;;;;;2.30;2.00;;;;;;;13.42;51.04;99161.81;105549;1256;72729;-42
2023/12/17 10:57:48;;;;;;;1.80;1.60;;;;;;;13.41;51.12;99159.61;105571;1260;62064;-42
2023/12/17 11:00:18;;;;;;;2.00;1.80;;;;;;;13.41;51.04;99157.41;105558;1260;62175;-42
2023/12/17 11:02:48;;;;;;;2.10;1.80;;;;;;;13.40;51.00;99159.55;105251;1261;75227;-42
2023/12/17 11:05:16;;;;;;;2.00;1.70;;;;;;;13.40;51.20;99156.60;105396;1258;66257;-42
2023/12/17 11:07:43;;;;;;;1.80;1.70;;;;;;;13.40;51.04;99152.29;105212;1258;72563;-42
2023/12/17 11:10:11;;;;;;;2.30;1.90;;;;;;;13.39;51.16;99154.29;105029;1257;62032;-42
2023/12/17 11:12:39;;;;;;;2.70;1.90;;;;;;;13.39;50.95;99149.66;105105;1263;62067;-41
2023/12/17 11:15:07;;;;;;;2.70;2.00;;;;;;;13.38;51.07;99149.56;105216;1260;76462;-41
2023/12/17 11:17:36;;;;;;;2.20;1.90;;;;;;;13.38;51.10;99150.38;105284;1260;67331;-42
2023/12/17 11:20:05;;;;;;;2.60;1.90;;;;;;;13.37;50.98;99152.65;105399;1258;72636;-42
2023/12/17 11:22:36;;;;;;;2.20;1.80;;;;;;;13.37;51.08;99155.77;105216;1257;62083;-43
2023/12/17 11:25:09;;;;;;;2.40;1.90;;;;;;;13.36;51.09;99162.18;105409;1258;62160;-42
2023/12/17 11:27:36;;;;;;;1.90;1.70;;;;;;;13.36;51.10;99154.70;105577;1257;73366;-42